Time;durP1;ratioP1;P1;durP2;ratioP2;P2;SDS_P1;SDS_P2;PMS_P1;PMS_P2;Temp;Humidity;BMP_temperature;BMP_pressure;BME280_temperature;BME280_humidity;BME280_pressure;Samples;Min_cycle;Max_cycle;Signal;HPM_P1;HPM_P2
2022/05/31 00:01:01;;;;;;;19.60;18.80;;;13.20;30.20;;;;;;4988637;28;20803;-81
2022/05/31 00:03:26;;;;;;;20.00;19.20;;;13.20;30.50;;;;;;4988772;28;20421;-81
2022/05/31 00:05:52;;;;;;;18.93;18.10;;;13.30;30.60;;;;;;4988505;28;20186;-81
2022/05/31 00:08:18;;;;;;;19.40;18.70;;;13.20;30.00;;;;;;4988117;28;20186;-81
2022/05/31 00:10:43;;;;;;;18.50;17.83;;;13.20;30.50;;;;;;4987936;28;20189;-81
2022/05/31 00:13:09;;;;;;;19.53;18.83;;;13.10;31.00;;;;;;4988255;28;20193;-81
2022/05/31 00:15:35;;;;;;;19.00;18.30;;;13.10;31.30;;;;;;4988033;28;20545;-81
2022/05/31 00:18:01;;;;;;;19.80;19.00;;;13.00;31.10;;;;;;4987960;28;20464;-81
2022/05/31 00:20:27;;;;;;;19.20;18.50;;;13.00;31.40;;;;;;4989990;28;20504;-81
2022/05/31 00:22:53;;;;;;;19.33;18.63;;;13.00;31.00;;;;;;4988262;28;20182;-81
2022/05/31 00:25:18;;;;;;;19.63;18.83;;;12.90;31.10;;;;;;4989281;28;20640;-81
2022/05/31 00:27:44;;;;;;;18.93;18.23;;;12.90;31.60;;;;;;4989870;28;20437;-81
2022/05/31 00:30:11;;;;;;;19.50;18.70;;;12.80;31.70;;;;;;4989053;28;20194;-81
2022/05/31 00:32:40;;;;;;;19.00;18.30;;;12.80;31.70;;;;;;4991647;28;20190;-81
2022/05/31 00:35:10;;;;;;;20.30;19.50;;;12.70;32.10;;;;;;4992605;28;20421;-81
2022/05/31 00:37:36;;;;;;;19.90;19.00;;;12.70;32.10;;;;;;4990575;28;20497;-81
2022/05/31 00:40:03;;;;;;;19.60;18.83;;;12.70;31.90;;;;;;4988613;28;20921;-80
2022/05/31 00:42:45;;;;;;;20.20;19.40;;;12.60;32.20;;;;;;4989933;28;20444;-81
2022/05/31 00:45:10;;;;;;;20.27;19.27;;;12.70;32.60;;;;;;4988729;28;20414;-81
2022/05/31 00:47:36;;;;;;;19.50;18.80;;;12.70;32.30;;;;;;4984460;28;20433;-82
2022/05/31 00:50:04;;;;;;;19.57;18.87;;;12.60;32.20;;;;;;4984905;28;20225;-82
2022/05/31 00:52:55;;;;;;;20.70;19.80;;;12.50;32.20;;;;;;4986829;28;20592;-82
2022/05/31 00:55:29;;;;;;;19.83;19.13;;;12.50;32.80;;;;;;4984763;28;20511;-82
2022/05/31 00:58:21;;;;;;;20.10;19.30;;;12.50;33.50;;;;;;4985532;28;20539;-82
2022/05/31 01:00:47;;;;;;;19.80;19.10;;;12.50;33.70;;;;;;4977371;28;20908;-82
2022/05/31 01:03:16;;;;;;;21.03;19.47;;;12.40;33.60;;;;;;4985677;28;20460;-82
2022/05/31 01:05:42;;;;;;;18.90;18.20;;;12.40;33.60;;;;;;4983136;28;20241;-83
2022/05/31 01:08:08;;;;;;;18.90;18.20;;;12.30;33.50;;;;;;4984298;28;20460;-82
2022/05/31 01:10:33;;;;;;;19.80;19.10;;;12.40;33.60;;;;;;4984591;28;20275;-82
2022/05/31 01:13:00;;;;;;;20.10;19.10;;;12.30;33.60;;;;;;4986007;28;20713;-81
2022/05/31 01:15:26;;;;;;;20.00;19.23;;;12.30;33.60;;;;;;4985045;28;20339;-82
2022/05/31 01:17:52;;;;;;;19.53;18.73;;;12.20;33.50;;;;;;4986236;28;20548;-83
2022/05/31 01:20:20;;;;;;;19.73;18.93;;;12.20;34.30;;;;;;4984732;28;20182;-82
2022/05/31 01:22:59;;;;;;;20.43;19.57;;;12.20;33.70;;;;;;4983525;28;20189;-82
2022/05/31 01:25:44;;;;;;;19.67;18.87;;;12.20;34.40;;;;;;4985518;28;20435;-82
2022/05/31 01:28:31;;;;;;;19.40;18.60;;;12.20;34.90;;;;;;4985893;28;20429;-82
2022/05/31 01:31:30;;;;;;;20.07;18.90;;;12.20;34.80;;;;;;4983400;28;20413;-83
2022/05/31 01:34:15;;;;;;;20.23;19.43;;;12.20;34.60;;;;;;4984057;28;20837;-82
2022/05/31 01:36:51;;;;;;;19.73;18.83;;;12.20;35.10;;;;;;4985176;28;20480;-81
2022/05/31 01:39:41;;;;;;;20.33;19.50;;;12.10;35.00;;;;;;4984873;28;20559;-82
2022/05/31 01:42:26;;;;;;;19.57;18.87;;;12.10;35.00;;;;;;4982785;28;20925;-82
2022/05/31 01:44:58;;;;;;;19.23;18.53;;;12.00;35.60;;;;;;4983775;28;20946;-82
2022/05/31 01:47:24;;;;;;;20.20;19.30;;;12.00;35.50;;;;;;4984999;28;20588;-81
2022/05/31 01:49:53;;;;;;;20.60;19.70;;;12.00;35.90;;;;;;4982915;28;21006;-83
2022/05/31 01:52:20;;;;;;;20.00;19.20;;;12.00;35.70;;;;;;4990667;28;21163;-82
2022/05/31 01:54:47;;;;;;;19.70;18.90;;;12.00;35.40;;;;;;4984548;28;20436;-81
2022/05/31 01:57:16;;;;;;;19.83;18.93;;;11.90;35.70;;;;;;4985055;28;20428;-82
2022/05/31 01:59:49;;;;;;;19.73;19.03;;;11.90;35.60;;;;;;4984049;28;20413;-81
2022/05/31 02:02:17;;;;;;;19.77;18.97;;;11.90;35.70;;;;;;4984077;28;20421;-82
2022/05/31 02:04:43;;;;;;;21.13;20.13;;;11.90;35.80;;;;;;4984275;28;20421;-82
2022/05/31 02:07:20;;;;;;;20.10;19.20;;;11.90;35.60;;;;;;4985815;28;20421;-82
2022/05/31 02:09:50;;;;;;;21.77;20.87;;;12.00;36.00;;;;;;4983150;28;20425;-82
2022/05/31 02:12:17;;;;;;;20.67;19.77;;;11.90;35.60;;;;;;4985224;28;20417;-82
2022/05/31 02:14:43;;;;;;;21.33;20.23;;;11.90;35.60;;;;;;4984607;28;20445;-82
2022/05/31 02:17:09;;;;;;;20.47;19.67;;;11.80;35.90;;;;;;4984863;28;20796;-82
2022/05/31 02:19:35;;;;;;;20.60;19.80;;;11.80;35.90;;;;;;4984654;28;20426;-81
2022/05/31 02:22:06;;;;;;;20.03;19.23;;;11.80;35.90;;;;;;4982408;28;20425;-81
2022/05/31 02:24:32;;;;;;;21.40;20.60;;;11.90;36.50;;;;;;4982721;28;21073;-81
2022/05/31 02:26:58;;;;;;;21.83;20.83;;;11.90;36.20;;;;;;4985084;28;20425;-82
2022/05/31 02:29:31;;;;;;;21.07;20.20;;;11.80;36.10;;;;;;4982910;28;20236;-83
2022/05/31 02:31:58;;;;;;;22.07;21.17;;;11.80;36.20;;;;;;4984699;28;20481;-82
2022/05/31 02:34:30;;;;;;;21.97;21.07;;;11.80;36.50;;;;;;4984054;28;20500;-82
2022/05/31 02:36:56;;;;;;;21.23;20.33;;;11.90;37.00;;;;;;4983929;28;20428;-82
2022/05/31 02:39:22;;;;;;;21.37;20.47;;;11.80;36.40;;;;;;4983682;28;20536;-82
2022/05/31 02:41:48;;;;;;;21.60;20.60;;;11.80;36.90;;;;;;4984455;28;20785;-83
2022/05/31 02:44:14;;;;;;;22.20;21.30;;;11.80;37.30;;;;;;4980398;28;20425;-82
2022/05/31 02:46:40;;;;;;;21.53;20.73;;;11.70;37.10;;;;;;4982254;28;20504;-82
2022/05/31 02:49:06;;;;;;;21.20;20.33;;;11.60;37.70;;;;;;4981644;28;20851;-82
2022/05/31 02:51:42;;;;;;;21.17;20.20;;;11.60;37.70;;;;;;4982228;28;20421;-83
2022/05/31 02:54:09;;;;;;;20.93;20.13;;;11.60;37.50;;;;;;4981723;28;20524;-82
2022/05/31 02:56:35;;;;;;;21.90;21.00;;;11.50;37.60;;;;;;4982990;28;20433;-81
2022/05/31 02:59:00;;;;;;;21.87;20.73;;;11.50;37.50;;;;;;4981074;28;20530;-82
2022/05/31 03:01:31;;;;;;;22.07;21.17;;;11.50;37.80;;;;;;4982347;28;20304;-82
2022/05/31 03:03:58;;;;;;;22.50;21.40;;;11.50;38.00;;;;;;4982105;28;20224;-82
2022/05/31 03:06:24;;;;;;;24.17;22.67;;;11.40;38.50;;;;;;4981413;28;20418;-82
2022/05/31 03:08:50;;;;;;;22.80;21.87;;;11.40;38.10;;;;;;4983230;28;20425;-82
2022/05/31 03:11:27;;;;;;;23.70;22.80;;;11.40;37.90;;;;;;4983415;28;20435;-82
2022/05/31 03:14:10;;;;;;;24.67;23.43;;;11.30;38.40;;;;;;4981983;28;20738;-82
2022/05/31 03:16:41;;;;;;;24.50;23.50;;;11.40;38.70;;;;;;4983545;28;20441;-81
2022/05/31 03:19:15;;;;;;;25.37;23.83;;;11.40;38.60;;;;;;4980571;28;20461;-82
2022/05/31 03:21:47;;;;;;;23.90;22.70;;;11.40;38.60;;;;;;4981211;28;20421;-82
2022/05/31 03:24:20;;;;;;;22.90;22.00;;;11.50;38.60;;;;;;4983562;28;20464;-82
2022/05/31 03:26:48;;;;;;;23.37;22.40;;;11.50;38.60;;;;;;4982164;28;20413;-83
2022/05/31 03:29:14;;;;;;;23.67;22.47;;;11.50;38.20;;;;;;4982712;28;20429;-82
2022/05/31 03:31:40;;;;;;;24.13;23.10;;;11.50;38.10;;;;;;4983920;28;20421;-82
2022/05/31 03:34:06;;;;;;;24.80;23.03;;;11.50;38.40;;;;;;4981989;28;20197;-81
2022/05/31 03:36:31;;;;;;;24.03;23.07;;;11.50;38.40;;;;;;4983554;28;20416;-81
2022/05/31 03:38:57;;;;;;;24.00;22.90;;;11.50;38.50;;;;;;4982824;28;20220;-82
2022/05/31 03:41:23;;;;;;;23.97;22.93;;;11.50;38.20;;;;;;4984378;28;20420;-83
2022/05/31 03:43:48;;;;;;;24.13;23.13;;;11.50;38.80;;;;;;4982664;28;20217;-82
2022/05/31 03:46:15;;;;;;;23.47;22.57;;;11.50;38.20;;;;;;4982401;28;20575;-82
2022/05/31 03:48:41;;;;;;;22.70;21.80;;;11.50;38.30;;;;;;4982217;28;20182;-82
2022/05/31 03:51:09;;;;;;;23.63;22.53;;;11.50;39.30;;;;;;4982116;28;20452;-82
2022/05/31 03:53:35;;;;;;;25.27;24.07;;;11.50;39.50;;;;;;4985800;28;20930;-81
2022/05/31 03:56:04;;;;;;;24.00;23.00;;;11.50;38.90;;;;;;4987479;28;20452;-82
2022/05/31 03:58:31;;;;;;;24.70;23.60;;;11.40;39.10;;;;;;4987096;28;20457;-81
2022/05/31 04:00:57;;;;;;;25.77;24.67;;;11.50;39.20;;;;;;4985584;28;20417;-81
2022/05/31 04:03:23;;;;;;;24.37;23.37;;;11.40;38.10;;;;;;4987049;28;20825;-82
2022/05/31 04:05:50;;;;;;;24.30;23.30;;;11.30;38.70;;;;;;4984971;28;20428;-82
2022/05/31 04:08:16;;;;;;;24.17;23.07;;;11.30;38.90;;;;;;4987476;28;20429;-79
2022/05/31 04:10:43;;;;;;;25.33;24.23;;;11.30;39.20;;;;;;4984638;28;20491;-81
2022/05/31 04:13:10;;;;;;;24.50;23.30;;;11.30;38.90;;;;;;4987516;28;20781;-82
2022/05/31 04:15:36;;;;;;;25.13;23.83;;;11.30;38.90;;;;;;4984253;28;20806;-83
2022/05/31 04:18:04;;;;;;;24.30;23.30;;;11.40;37.80;;;;;;4985900;28;20515;-81
2022/05/31 04:20:30;;;;;;;25.30;23.70;;;11.30;38.70;;;;;;4987308;28;20504;-81
2022/05/31 04:23:57;;;;;;;23.93;22.73;;;11.40;38.70;;;;;;4986232;28;20456;-86
2022/05/31 04:25:42;;;;;;;23.67;22.67;;;11.40;38.40;;;;;;4986833;28;20432;-87
2022/05/31 04:28:09;;;;;;;24.73;23.60;;;11.40;39.10;;;;;;4988070;28;20428;-87
2022/05/31 04:30:36;;;;;;;23.60;22.60;;;11.40;38.80;;;;;;4987469;28;20526;-87
2022/05/31 04:33:02;;;;;;;22.03;21.13;;;11.40;38.20;;;;;;4986935;28;20968;-87
2022/05/31 04:35:28;;;;;;;23.10;22.00;;;11.50;38.30;;;;;;4987176;28;20428;-87
2022/05/31 04:37:53;;;;;;;22.87;21.90;;;11.60;38.20;;;;;;4987507;28;20461;-82
2022/05/31 04:40:19;;;;;;;23.17;22.17;;;11.60;37.80;;;;;;4987021;28;20397;-88
2022/05/31 04:42:45;;;;;;;23.63;22.20;;;11.50;37.90;;;;;;4986519;28;20178;-85
2022/05/31 04:45:11;;;;;;;23.93;22.73;;;11.60;37.60;;;;;;4985232;28;20182;-88
2022/05/31 04:47:37;;;;;;;23.07;22.07;;;11.60;37.90;;;;;;4986981;28;20663;-87
2022/05/31 04:50:03;;;;;;;23.63;22.60;;;11.50;37.30;;;;;;4987365;28;20384;-88
2022/05/31 04:52:29;;;;;;;22.30;21.40;;;11.60;37.20;;;;;;4983968;28;20460;-89
2022/05/31 04:54:56;;;;;;;22.87;21.87;;;11.60;36.60;;;;;;4996244;28;20925;-89
2022/05/31 04:57:21;;;;;;;21.93;20.83;;;11.70;37.00;;;;;;4987684;28;20215;-84
2022/05/31 04:59:47;;;;;;;23.13;21.90;;;11.90;36.50;;;;;;4989213;28;20420;-85
2022/05/31 05:02:13;;;;;;;24.07;22.97;;;11.80;36.70;;;;;;4987132;28;20189;-84
2022/05/31 05:04:38;;;;;;;22.20;21.30;;;11.70;36.80;;;;;;4987425;28;20174;-86
2022/05/31 05:07:04;;;;;;;24.00;22.90;;;11.70;37.60;;;;;;4990068;28;20673;-84
2022/05/31 05:09:30;;;;;;;25.07;23.23;;;11.80;37.00;;;;;;4989727;28;20523;-84
2022/05/31 05:11:56;;;;;;;23.90;22.90;;;11.80;37.20;;;;;;4991257;28;20508;-89
2022/05/31 05:14:22;;;;;;;23.60;22.30;;;11.90;36.90;;;;;;4988640;28;20631;-88
2022/05/31 05:19:18;;;;;;;24.40;23.30;;;12.00;36.90;;;;;;5006005;22;20843;-83
2022/05/31 05:21:44;;;;;;;22.47;21.47;;;12.00;36.80;;;;;;5003709;28;20784;-81
2022/05/31 05:24:09;;;;;;;23.57;22.47;;;12.10;36.80;;;;;;5003319;28;20424;-83
2022/05/31 05:26:36;;;;;;;23.50;22.40;;;12.00;36.70;;;;;;5004162;28;20184;-84
2022/05/31 05:31:47;;;;;;;22.87;21.53;;;12.10;36.30;;;;;;5008472;28;20470;-85
2022/05/31 05:34:13;;;;;;;23.60;22.60;;;12.20;37.00;;;;;;5004644;28;21097;-85
2022/05/31 05:36:39;;;;;;;24.30;23.30;;;12.30;35.70;;;;;;5001858;28;20424;-84
2022/05/31 05:39:10;;;;;;;22.53;21.57;;;12.40;34.20;;;;;;5004034;28;20464;-85
2022/05/31 05:41:36;;;;;;;23.97;22.87;;;12.40;34.90;;;;;;5003853;28;20537;-82
2022/05/31 05:44:01;;;;;;;23.23;22.03;;;12.50;34.80;;;;;;5005432;28;20500;-84
2022/05/31 05:46:58;;;;;;;24.53;23.10;;;12.50;34.10;;;;;;5003720;28;20417;-84
2022/05/31 05:49:23;;;;;;;23.03;21.80;;;12.70;33.90;;;;;;5001218;28;20192;-84
2022/05/31 05:51:49;;;;;;;22.77;21.87;;;12.70;33.90;;;;;;5004878;28;20405;-84
2022/05/31 05:54:15;;;;;;;22.10;21.10;;;12.80;32.70;;;;;;5002521;28;20191;-84
2022/05/31 05:56:40;;;;;;;21.73;20.90;;;12.80;31.90;;;;;;5003701;28;20264;-84
2022/05/31 05:59:06;;;;;;;22.57;21.17;;;12.80;33.20;;;;;;5002957;28;20626;-84
2022/05/31 06:01:35;;;;;;;22.93;22.00;;;12.90;34.00;;;;;;5003165;28;20207;-84
2022/05/31 06:04:33;;;;;;;23.17;22.27;;;12.90;34.40;;;;;;5003185;28;20231;-84
2022/05/31 06:07:12;;;;;;;24.45;23.35;;;13.00;33.60;;;;;;4984331;28;20411;-83
2022/05/31 06:09:40;;;;;;;23.60;22.50;;;13.20;33.90;;;;;;5003822;28;20189;-83
2022/05/31 06:12:13;;;;;;;23.83;22.67;;;13.30;34.00;;;;;;5004720;28;20550;-86
2022/05/31 06:14:41;;;;;;;23.67;22.53;;;13.40;33.20;;;;;;5005029;28;20771;-85
2022/05/31 06:17:17;;;;;;;22.40;21.50;;;13.40;32.20;;;;;;5004098;28;20778;-85
2022/05/31 06:19:46;;;;;;;22.00;20.93;;;13.40;32.80;;;;;;5004659;28;20435;-88
2022/05/31 06:22:12;;;;;;;24.30;23.17;;;13.50;33.60;;;;;;5004002;28;20792;-84
2022/05/31 06:24:39;;;;;;;24.30;22.90;;;13.60;33.30;;;;;;5002979;28;20412;-86
2022/05/31 06:27:06;;;;;;;23.97;22.43;;;13.70;33.20;;;;;;5004176;28;20420;-86
2022/05/31 06:29:32;;;;;;;24.67;23.57;;;13.90;32.80;;;;;;5004869;28;20424;-86
2022/05/31 06:31:58;;;;;;;24.53;23.43;;;13.90;32.10;;;;;;5003579;28;20427;-85
2022/05/31 06:34:24;;;;;;;24.40;23.40;;;13.90;33.10;;;;;;5004132;28;20554;-86
2022/05/31 06:37:04;;;;;;;24.23;23.17;;;14.00;32.40;;;;;;5002809;28;20420;-85
2022/05/31 06:39:30;;;;;;;24.90;23.90;;;14.10;32.60;;;;;;5001457;28;20200;-86
2022/05/31 06:41:56;;;;;;;25.07;24.07;;;14.20;33.40;;;;;;5001314;28;20439;-85
2022/05/31 06:44:21;;;;;;;25.43;24.33;;;14.30;33.00;;;;;;5001815;28;20519;-85
2022/05/31 06:46:47;;;;;;;23.80;22.70;;;14.50;31.30;;;;;;5001645;28;20412;-85
2022/05/31 06:49:13;;;;;;;23.60;22.60;;;14.50;30.90;;;;;;5003383;28;20187;-85
2022/05/31 06:57:06;;;;;;;23.30;22.30;;;14.70;30.80;;;;;;5005999;28;20412;-85
2022/05/31 06:59:32;;;;;;;21.40;20.60;;;14.70;30.90;;;;;;5005077;28;20963;-86
2022/05/31 07:02:03;;;;;;;22.57;21.47;;;14.80;30.70;;;;;;5005088;28;20260;-87
2022/05/31 07:04:38;;;;;;;21.20;20.30;;;14.90;31.30;;;;;;5004688;28;20404;-86
2022/05/31 07:07:05;;;;;;;23.13;22.23;;;14.90;30.00;;;;;;5006009;28;20411;-86
2022/05/31 07:09:32;;;;;;;22.70;21.80;;;15.00;31.10;;;;;;5010223;28;20416;-87
2022/05/31 07:11:58;;;;;;;24.20;22.77;;;15.10;30.00;;;;;;5011330;28;20456;-86
2022/05/31 07:14:27;;;;;;;23.47;22.30;;;15.10;30.20;;;;;;5017710;28;21172;-85
2022/05/31 07:16:53;;;;;;;23.00;22.10;;;15.10;29.70;;;;;;5010827;28;20424;-83
2022/05/31 07:19:19;;;;;;;23.37;22.10;;;15.20;30.20;;;;;;5010895;28;20472;-81
2022/05/31 07:21:45;;;;;;;19.30;18.60;;;15.30;29.70;;;;;;5010752;28;20416;-85
2022/05/31 07:24:11;;;;;;;23.00;21.63;;;15.30;31.00;;;;;;5009891;28;20184;-85
2022/05/31 07:26:39;;;;;;;23.40;22.40;;;15.40;33.30;;;;;;5012868;28;20204;-85
2022/05/31 07:29:05;;;;;;;21.10;20.30;;;15.50;30.10;;;;;;5014479;28;20424;-84
2022/05/31 07:31:31;;;;;;;22.47;21.57;;;15.60;29.00;;;;;;5014566;28;20987;-84
2022/05/31 07:33:58;;;;;;;22.60;21.57;;;15.60;29.20;;;;;;5016063;28;20428;-85
2022/05/31 07:36:24;;;;;;;22.00;21.00;;;15.70;29.50;;;;;;5015642;28;20260;-84
2022/05/31 07:38:50;;;;;;;21.93;21.13;;;15.80;28.70;;;;;;5016111;28;20554;-84
2022/05/31 07:41:15;;;;;;;22.77;21.47;;;15.80;29.80;;;;;;5014976;28;20415;-85
2022/05/31 07:43:41;;;;;;;21.03;19.80;;;15.90;29.30;;;;;;5014844;28;20227;-84
2022/05/31 07:46:10;;;;;;;20.87;20.07;;;16.00;28.90;;;;;;5013580;28;20173;-86
2022/05/31 07:48:38;;;;;;;22.40;21.50;;;16.10;28.20;;;;;;5014241;28;20560;-86
2022/05/31 07:51:04;;;;;;;22.77;21.80;;;16.30;28.90;;;;;;5014233;28;20444;-85
2022/05/31 07:53:30;;;;;;;24.60;22.30;;;16.40;28.40;;;;;;5013094;28;20783;-86
2022/05/31 07:56:00;;;;;;;23.33;22.30;;;16.40;28.50;;;;;;5013177;28;20892;-84
2022/05/31 07:58:33;;;;;;;22.50;21.50;;;16.40;29.00;;;;;;5013712;28;20464;-85
2022/05/31 08:01:01;;;;;;;23.20;22.30;;;16.50;27.80;;;;;;5012950;28;20494;-86
2022/05/31 08:03:27;;;;;;;22.77;21.33;;;16.70;27.20;;;;;;5013545;28;20765;-85
2022/05/31 08:05:53;;;;;;;21.60;20.70;;;16.70;27.80;;;;;;5013588;28;20528;-85
2022/05/31 08:08:19;;;;;;;22.40;20.90;;;16.70;27.80;;;;;;5012854;28;20958;-86
2022/05/31 08:10:45;;;;;;;22.67;21.67;;;16.70;27.70;;;;;;5013474;28;20420;-85
2022/05/31 08:13:11;;;;;;;23.20;22.20;;;16.80;28.30;;;;;;5013153;28;20192;-85
2022/05/31 08:15:36;;;;;;;22.83;21.83;;;16.80;27.80;;;;;;5012632;28;20174;-86
2022/05/31 08:18:02;;;;;;;22.80;21.93;;;16.90;27.80;;;;;;5013131;28;20209;-85
2022/05/31 08:20:28;;;;;;;22.30;21.50;;;17.10;27.00;;;;;;5013409;28;20712;-85
2022/05/31 08:22:53;;;;;;;22.40;21.50;;;17.10;28.00;;;;;;5012381;28;20193;-86
2022/05/31 08:25:19;;;;;;;21.27;20.47;;;17.20;27.30;;;;;;5012895;28;20189;-86
2022/05/31 08:27:45;;;;;;;23.30;22.30;;;17.20;27.30;;;;;;5013040;28;20561;-86
2022/05/31 08:30:11;;;;;;;22.60;21.60;;;17.30;28.00;;;;;;5012391;28;20420;-86
2022/05/31 08:32:37;;;;;;;22.50;21.50;;;17.40;27.00;;;;;;5013064;28;20452;-86
2022/05/31 08:35:06;;;;;;;23.43;22.53;;;17.40;28.20;;;;;;5012721;28;20455;-86
2022/05/31 08:37:31;;;;;;;22.87;21.97;;;17.30;26.90;;;;;;5011563;28;20626;-85
2022/05/31 08:39:58;;;;;;;22.00;21.20;;;17.40;27.00;;;;;;5012929;28;20470;-85
2022/05/31 08:42:49;;;;;;;22.10;20.77;;;17.60;27.40;;;;;;5012528;28;20220;-86
2022/05/31 08:45:45;;;;;;;22.37;21.37;;;17.70;27.40;;;;;;5011812;28;20413;-85
2022/05/31 08:48:31;;;;;;;22.83;21.70;;;17.90;25.90;;;;;;5007450;28;20456;-86
2022/05/31 08:57:07;;;;;;;20.57;19.77;;;18.00;25.40;;;;;;5013252;28;20470;-85
2022/05/31 08:59:41;;;;;;;21.20;20.30;;;18.00;26.50;;;;;;5011437;28;21045;-84
2022/05/31 09:02:21;;;;;;;22.40;21.50;;;18.10;26.80;;;;;;5012129;28;20417;-85
2022/05/31 09:04:59;;;;;;;22.77;21.67;;;18.20;26.20;;;;;;5012381;28;20454;-86
2022/05/31 09:07:31;;;;;;;24.10;22.70;;;18.40;25.30;;;;;;5011981;28;20444;-86
2022/05/31 09:10:23;;;;;;;22.30;21.30;;;18.50;25.20;;;;;;5012429;28;20431;-87
2022/05/31 09:13:26;;;;;;;22.47;21.47;;;18.40;25.60;;;;;;5012260;28;20424;-86
2022/05/31 09:16:00;;;;;;;22.83;21.93;;;18.50;26.60;;;;;;5011019;28;20412;-86
2022/05/31 09:18:39;;;;;;;22.87;21.87;;;18.50;26.20;;;;;;5012433;28;20715;-85
2022/05/31 09:21:13;;;;;;;21.13;20.33;;;18.60;27.00;;;;;;5010518;28;20412;-86
2022/05/31 09:23:40;;;;;;;21.80;20.80;;;18.70;26.80;;;;;;5012038;28;20420;-85
2022/05/31 09:26:08;;;;;;;22.10;21.20;;;18.70;25.90;;;;;;5011153;28;20456;-86
2022/05/31 09:29:23;;;;;;;21.87;21.07;;;18.80;25.00;;;;;;5010911;28;20477;-86
2022/05/31 09:32:00;;;;;;;22.90;22.00;;;18.90;25.30;;;;;;4936229;29;20882;-86
2022/05/31 09:34:48;;;;;;;22.83;21.83;;;18.90;25.30;;;;;;4936427;29;20691;-86
2022/05/31 09:37:13;;;;;;;22.77;21.80;;;19.20;24.30;;;;;;4978701;28;20801;-86
2022/05/31 09:40:16;;;;;;;23.97;22.47;;;19.50;23.80;;;;;;5004687;28;20470;-86
2022/05/31 09:42:56;;;;;;;22.13;21.13;;;19.70;24.90;;;;;;4980991;28;20213;-84
2022/05/31 09:45:22;;;;;;;21.90;21.00;;;20.00;21.70;;;;;;5012236;28;20415;-84
2022/05/31 09:47:52;;;;;;;21.63;20.80;;;20.00;21.70;;;;;;5011813;28;20786;-86
2022/05/31 09:50:28;;;;;;;22.90;21.90;;;19.80;22.00;;;;;;5011375;28;20621;-86
2022/05/31 09:52:56;;;;;;;22.80;21.73;;;19.70;22.70;;;;;;5010875;28;20443;-86
2022/05/31 09:58:24;;;;;;;21.10;20.30;;;19.90;22.00;;;;;;5011824;28;20794;-86
2022/05/31 10:01:14;;;;;;;21.47;20.67;;;19.80;21.60;;;;;;5011324;28;20408;-86
2022/05/31 10:03:44;;;;;;;21.70;20.67;;;19.80;21.20;;;;;;5011263;28;20412;-86
2022/05/31 10:06:22;;;;;;;22.00;21.10;;;19.70;21.50;;;;;;5009840;28;20417;-86
2022/05/31 10:08:54;;;;;;;21.50;20.70;;;19.90;21.60;;;;;;5010986;28;20469;-87
2022/05/31 10:11:32;;;;;;;21.47;20.33;;;19.90;21.90;;;;;;5011428;28;20416;-87
2022/05/31 10:14:05;;;;;;;20.90;20.00;;;19.90;22.10;;;;;;5010883;28;20938;-85
2022/05/31 10:16:33;;;;;;;20.87;20.07;;;19.90;21.60;;;;;;5011273;28;20423;-85
2022/05/31 10:19:08;;;;;;;22.60;21.50;;;20.10;21.70;;;;;;5010933;28;21001;-85
2022/05/31 10:21:40;;;;;;;21.23;20.33;;;20.10;22.90;;;;;;5010824;28;20412;-84
2022/05/31 10:24:06;;;;;;;21.97;21.07;;;20.10;21.70;;;;;;5011079;28;20795;-84
2022/05/31 10:26:37;;;;;;;21.43;20.57;;;20.10;21.80;;;;;;5010935;28;20474;-84
2022/05/31 10:29:16;;;;;;;22.20;21.20;;;20.00;21.70;;;;;;5010436;28;20177;-84
2022/05/31 10:31:48;;;;;;;22.50;21.50;;;20.00;23.70;;;;;;5011320;28;20518;-84
2022/05/31 10:34:23;;;;;;;22.10;21.10;;;20.00;24.00;;;;;;5010650;28;20424;-84
2022/05/31 10:36:55;;;;;;;22.37;21.47;;;20.00;24.30;;;;;;5010620;28;20418;-84
2022/05/31 10:39:35;;;;;;;22.00;21.10;;;20.00;24.50;;;;;;5012006;28;20471;-84
2022/05/31 10:42:03;;;;;;;21.70;20.80;;;19.90;24.60;;;;;;5010769;28;20428;-83
2022/05/31 10:44:40;;;;;;;22.67;21.67;;;20.00;25.10;;;;;;5010366;28;20900;-85
2022/05/31 10:47:13;;;;;;;23.33;22.33;;;20.00;25.20;;;;;;5011536;28;20414;-84
2022/05/31 10:49:41;;;;;;;23.60;21.93;;;20.00;24.00;;;;;;5011430;28;20432;-84
2022/05/31 10:52:37;;;;;;;21.83;20.93;;;20.10;23.90;;;;;;5010847;28;20420;-85
2022/05/31 10:55:30;;;;;;;22.40;21.50;;;20.10;23.80;;;;;;5013692;28;20523;-84
2022/05/31 10:58:24;;;;;;;21.97;20.90;;;20.20;24.30;;;;;;5010918;28;20591;-85
2022/05/31 11:01:30;;;;;;;22.47;21.30;;;20.30;23.60;;;;;;5012890;28;20478;-85
2022/05/31 11:04:20;;;;;;;23.10;22.20;;;20.40;23.40;;;;;;4972270;28;20416;-85
2022/05/31 11:07:17;;;;;;;22.67;21.50;;;20.40;23.40;;;;;;5014508;28;20416;-85
2022/05/31 11:13:16;;;;;;;22.40;21.37;;;20.50;23.80;;;;;;5015483;28;20433;-82
2022/05/31 11:15:59;;;;;;;22.50;21.40;;;20.50;22.00;;;;;;5015728;28;20859;-85
2022/05/31 11:18:28;;;;;;;21.30;20.37;;;20.60;21.60;;;;;;5014430;28;20471;-84
2022/05/31 11:21:08;;;;;;;21.80;20.90;;;20.60;22.10;;;;;;5004166;28;20908;-82
2022/05/31 11:23:54;;;;;;;22.30;21.10;;;20.70;21.80;;;;;;5010934;28;20925;-84
2022/05/31 11:26:41;;;;;;;22.03;20.93;;;20.70;20.70;;;;;;5011071;28;20801;-82
2022/05/31 11:29:27;;;;;;;21.50;20.43;;;20.70;21.80;;;;;;4993757;28;20515;-83
2022/05/31 11:32:31;;;;;;;22.37;21.27;;;20.90;21.10;;;;;;5018432;28;20912;-83
2022/05/31 11:35:30;;;;;;;21.00;19.90;;;21.00;20.80;;;;;;4985163;28;20486;-85
2022/05/31 11:38:43;;;;;;;22.23;20.97;;;21.10;20.00;;;;;;5000126;28;20464;-85
2022/05/31 11:41:14;;;;;;;21.70;20.80;;;21.10;19.90;;;;;;4969170;28;20783;-85
2022/05/31 11:44:08;;;;;;;21.80;20.80;;;21.10;19.40;;;;;;5012724;28;20420;-86
2022/05/31 11:46:51;;;;;;;21.87;20.77;;;21.00;22.40;;;;;;5013984;28;20412;-85
2022/05/31 11:49:39;;;;;;;21.33;20.47;;;21.10;19.70;;;;;;5013141;28;20986;-84
2022/05/31 11:52:36;;;;;;;19.60;18.80;;;21.20;19.50;;;;;;5013765;28;20420;-85
2022/05/31 11:55:30;;;;;;;21.70;20.80;;;21.30;19.00;;;;;;4993895;28;20491;-85
2022/05/31 11:58:16;;;;;;;21.20;20.40;;;21.20;20.00;;;;;;4993173;28;20460;-86
2022/05/31 12:00:51;;;;;;;21.77;20.87;;;21.20;21.30;;;;;;4998635;28;20451;-85
2022/05/31 12:03:23;;;;;;;22.17;21.27;;;21.30;17.70;;;;;;5013629;28;20837;-84
2022/05/31 12:05:57;;;;;;;22.93;21.93;;;21.40;17.90;;;;;;5012457;28;20435;-85
2022/05/31 12:08:28;;;;;;;22.90;21.77;;;21.30;18.50;;;;;;5014043;28;20424;-85
2022/05/31 12:11:00;;;;;;;21.50;20.70;;;21.30;18.40;;;;;;5013292;28;20428;-85
2022/05/31 12:13:26;;;;;;;22.17;21.27;;;21.30;17.40;;;;;;5011842;28;20827;-85
2022/05/31 12:15:54;;;;;;;22.57;21.27;;;21.30;17.20;;;;;;5000187;28;20445;-85
2022/05/31 12:18:28;;;;;;;22.00;21.10;;;21.30;18.80;;;;;;5008981;28;20470;-87
2022/05/31 12:21:11;;;;;;;22.10;21.13;;;21.20;18.60;;;;;;5032971;28;20431;-82
2022/05/31 12:23:43;;;;;;;21.53;20.63;;;21.20;17.10;;;;;;5032756;28;20434;-85
2022/05/31 12:26:26;;;;;;;21.70;20.90;;;21.30;17.30;;;;;;5032228;28;20425;-85
2022/05/31 12:29:16;;;;;;;21.67;20.80;;;21.40;17.00;;;;;;5033099;28;20424;-84
2022/05/31 12:31:43;;;;;;;22.20;21.33;;;21.40;17.20;;;;;;5034316;28;20403;-84
2022/05/31 12:34:21;;;;;;;20.33;19.43;;;21.40;16.80;;;;;;5031852;28;20971;-84
2022/05/31 12:37:05;;;;;;;20.40;19.50;;;21.30;17.10;;;;;;5032708;28;21001;-85
2022/05/31 12:39:33;;;;;;;20.83;20.03;;;21.40;16.30;;;;;;5014059;28;20543;-84
2022/05/31 12:42:25;;;;;;;20.33;19.53;;;21.30;17.70;;;;;;5012415;28;20424;-85
2022/05/31 12:45:08;;;;;;;21.30;20.50;;;21.40;16.90;;;;;;5012720;28;20491;-84
2022/05/31 12:47:34;;;;;;;22.77;21.73;;;21.40;15.90;;;;;;5013378;28;20443;-84
2022/05/31 12:50:06;;;;;;;21.97;21.17;;;21.50;19.40;;;;;;5018263;28;20424;-84
2022/05/31 12:55:21;;;;;;;18.93;18.13;;;21.60;17.60;;;;;;5014162;28;20420;-84
2022/05/31 13:00:56;;;;;;;20.90;19.90;;;21.70;16.80;;;;;;5014608;28;20418;-85
2022/05/31 13:03:34;;;;;;;20.73;19.93;;;21.90;16.70;;;;;;5012353;28;20420;-85
2022/05/31 13:06:03;;;;;;;21.20;19.80;;;22.00;15.40;;;;;;5012136;28;20421;-85
2022/05/31 13:08:57;;;;;;;20.13;19.33;;;21.80;16.70;;;;;;5012860;28;20412;-85
2022/05/31 13:20:25;;;;;;;20.63;19.60;;;22.10;14.50;;;;;;5013961;28;20549;-86
2022/05/31 13:22:56;;;;;;;20.80;19.93;;;21.80;15.60;;;;;;5012231;28;20408;-86
2022/05/31 13:25:43;;;;;;;20.80;20.00;;;21.80;14.90;;;;;;5011174;28;20493;-83
2022/05/31 13:28:29;;;;;;;20.60;19.80;;;21.80;15.30;;;;;;5013184;28;20414;-83
2022/05/31 13:31:16;;;;;;;21.10;20.30;;;21.80;14.30;;;;;;5012182;28;20836;-86